createdAt,value
2022-09-18T00:01:16.151Z,101104.91
2022-09-18T00:03:43.485Z,101105.03
2022-09-18T00:06:13.400Z,101095.47
2022-09-18T00:08:40.464Z,101055.97
2022-09-18T00:11:08.722Z,101106.88
2022-09-18T00:13:37.421Z,101017.56
2022-09-18T00:16:05.121Z,101029.53
2022-09-18T00:18:31.942Z,101096.38
2022-09-18T00:21:16.065Z,101028.31
2022-09-18T00:23:43.660Z,100998.69
2022-09-18T00:26:11.783Z,101099.00
2022-09-18T00:28:38.660Z,101093.91
2022-09-18T00:31:11.360Z,101093.84
2022-09-18T00:33:39.195Z,101094.75
2022-09-18T00:36:08.883Z,101096.47
2022-09-18T00:38:35.495Z,101065.13
2022-09-18T00:41:04.082Z,101090.50
2022-09-18T00:43:33.199Z,101066.53
2022-09-18T00:46:04.595Z,100996.13
2022-09-18T00:48:43.434Z,101047.41
2022-09-18T00:51:10.009Z,101048.59
2022-09-18T00:53:40.583Z,101087.88
2022-09-18T00:56:08.033Z,101030.88
2022-09-18T00:58:35.146Z,101050.22
2022-09-18T01:01:02.540Z,101076.59
2022-09-18T01:03:29.593Z,100980.63
2022-09-18T01:06:08.877Z,101084.47
2022-09-18T01:08:51.089Z,100959.47
2022-09-18T01:11:40.567Z,101052.00
2022-09-18T01:14:27.915Z,101089.66
2022-09-18T01:17:13.056Z,101084.31
2022-09-18T01:20:00.627Z,101086.16
2022-09-18T01:22:48.213Z,101090.63
2022-09-18T01:25:14.520Z,101097.59
2022-09-18T01:27:58.813Z,101088.00
2022-09-18T01:30:25.219Z,101032.66
2022-09-18T01:32:59.028Z,100843.78
2022-09-18T01:35:45.668Z,101026.97
2022-09-18T01:38:19.562Z,101095.69
2022-09-18T01:40:54.981Z,101090.50
2022-09-18T01:43:23.666Z,101076.19
2022-09-18T01:45:54.699Z,101085.53
2022-09-18T01:48:27.273Z,101097.59
2022-09-18T01:51:00.466Z,101040.31
2022-09-18T01:53:36.938Z,101029.81
2022-09-18T01:56:09.743Z,101075.66
2022-09-18T01:58:37.321Z,101073.81
2022-09-18T02:01:13.459Z,101017.78
2022-09-18T02:03:45.529Z,101074.59
2022-09-18T02:06:19.611Z,101054.34
2022-09-18T02:08:58.064Z,101074.75
2022-09-18T02:11:24.669Z,100979.69
2022-09-18T02:14:01.509Z,101035.81
2022-09-18T02:16:44.430Z,101042.56
2022-09-18T02:19:22.229Z,100925.53
2022-09-18T02:21:51.662Z,101036.97
2022-09-18T02:24:21.057Z,101080.28
2022-09-18T02:26:51.787Z,100971.25
2022-09-18T02:29:20.636Z,101058.31
2022-09-18T02:31:48.949Z,100837.44
2022-09-18T02:34:16.043Z,101065.34
2022-09-18T02:36:53.581Z,101037.94
2022-09-18T02:39:25.586Z,101057.53
2022-09-18T02:42:07.077Z,101053.00
2022-09-18T02:44:36.365Z,101047.09
2022-09-18T02:47:45.334Z,101041.94
2022-09-18T02:50:23.488Z,101045.53
2022-09-18T02:52:55.994Z,101046.47
2022-09-18T02:55:27.231Z,101044.75
2022-09-18T02:58:02.031Z,101015.56
2022-09-18T03:00:31.784Z,101045.75
2022-09-18T03:02:59.448Z,100973.88
2022-09-18T03:05:26.815Z,101015.63
2022-09-18T03:07:55.169Z,100955.75
2022-09-18T03:10:21.462Z,100984.81
2022-09-18T03:12:47.779Z,100982.97
2022-09-18T03:15:14.169Z,100946.53
2022-09-18T03:17:40.492Z,101023.75
2022-09-18T03:20:07.344Z,101000.09
2022-09-18T03:22:33.682Z,101029.06
2022-09-18T03:24:59.968Z,101025.59
2022-09-18T03:27:26.369Z,101000.25
2022-09-18T03:29:52.809Z,100895.91
2022-09-18T03:32:19.132Z,101007.97
2022-09-18T03:34:45.485Z,100871.91
2022-09-18T03:37:11.870Z,100936.75
2022-09-18T03:39:38.192Z,101037.88
2022-09-18T03:42:04.716Z,100989.50
2022-09-18T03:44:33.418Z,100926.38
2022-09-18T03:46:59.809Z,101039.56
2022-09-18T03:49:26.469Z,100934.84
2022-09-18T03:51:52.913Z,100819.91
2022-09-18T03:54:19.323Z,101038.09
2022-09-18T03:56:45.629Z,101015.69
2022-09-18T03:59:12.017Z,100910.59
2022-09-18T04:01:38.363Z,101003.72
2022-09-18T04:04:04.747Z,101024.03
2022-09-18T04:06:31.053Z,100956.59
2022-09-18T04:08:57.428Z,101029.44
2022-09-18T04:11:23.789Z,101018.09
2022-09-18T04:13:50.126Z,101023.31
2022-09-18T04:16:16.652Z,100961.75
2022-09-18T04:18:43.133Z,101018.09
2022-09-18T04:21:09.609Z,100915.00
2022-09-18T04:23:36.077Z,101018.09
2022-09-18T04:26:09.307Z,100935.63
2022-09-18T04:28:37.318Z,101015.63
2022-09-18T04:31:04.144Z,101020.81
2022-09-18T04:33:30.848Z,100909.31
2022-09-18T04:35:57.175Z,101013.84
2022-09-18T04:38:27.524Z,101015.56
2022-09-18T04:40:57.518Z,101015.41
2022-09-18T04:43:24.984Z,100980.34
2022-09-18T04:45:51.525Z,100923.34
2022-09-18T04:48:19.110Z,100997.03
2022-09-18T04:50:46.670Z,100936.66
2022-09-18T04:53:13.799Z,101001.38
2022-09-18T04:55:43.264Z,100999.03
2022-09-18T04:58:09.593Z,101011.56
2022-09-18T05:00:38.081Z,101009.84
2022-09-18T05:03:05.718Z,100903.44
2022-09-18T05:05:32.613Z,101007.47
2022-09-18T05:08:00.237Z,100980.56
2022-09-18T05:10:27.380Z,100996.13
2022-09-18T05:12:54.093Z,101005.19
2022-09-18T05:15:21.786Z,100974.47
2022-09-18T05:17:48.253Z,100974.19
2022-09-18T05:20:14.698Z,101005.19
2022-09-18T05:22:45.961Z,100993.69
2022-09-18T05:25:12.606Z,100943.19
2022-09-18T05:27:39.478Z,100999.78
2022-09-18T05:30:06.585Z,101007.59
2022-09-18T05:32:32.932Z,100928.47
2022-09-18T05:34:59.335Z,100924.16
2022-09-18T05:37:25.640Z,100941.63
2022-09-18T05:39:52.125Z,100991.69
2022-09-18T05:42:18.506Z,100998.50
2022-09-18T05:44:44.845Z,100934.75
2022-09-18T05:47:11.367Z,100853.16
2022-09-18T05:49:37.661Z,100951.13
2022-09-18T05:52:04.050Z,100870.28
2022-09-18T05:54:30.881Z,100793.59
2022-09-18T05:56:57.551Z,100909.69
2022-09-18T05:59:23.870Z,100753.06
2022-09-18T06:01:50.246Z,100902.47
2022-09-18T06:04:16.639Z,100911.09
2022-09-18T06:06:43.761Z,101010.41
2022-09-18T06:09:10.853Z,100996.81
2022-09-18T06:11:37.168Z,101013.75
2022-09-18T06:14:03.533Z,100959.94
2022-09-18T06:16:30.122Z,100800.72
2022-09-18T06:18:56.573Z,100986.06
2022-09-18T06:21:22.951Z,100829.50
2022-09-18T06:23:49.277Z,101012.06
2022-09-18T06:26:15.880Z,100935.47
2022-09-18T06:28:42.198Z,100945.63
2022-09-18T06:31:09.825Z,101014.25
2022-09-18T06:33:36.258Z,100918.19
2022-09-18T06:36:08.228Z,101010.31
2022-09-18T06:38:34.716Z,100982.75
2022-09-18T06:41:01.290Z,100941.72
2022-09-18T06:43:28.110Z,101007.16
2022-09-18T06:45:56.009Z,100985.91
2022-09-18T06:48:23.505Z,100919.75
2022-09-18T06:50:54.777Z,100890.88
2022-09-18T06:53:21.873Z,101000.28
2022-09-18T06:55:48.887Z,101007.31
2022-09-18T06:58:17.224Z,100939.22
2022-09-18T07:00:44.565Z,101009.56
2022-09-18T07:03:11.346Z,100996.97
2022-09-18T07:05:42.822Z,101002.63
2022-09-18T07:08:09.688Z,100769.28
2022-09-18T07:10:36.273Z,100993.16
2022-09-18T07:13:02.693Z,100989.03
2022-09-18T07:15:29.353Z,100988.41
2022-09-18T07:17:57.219Z,100989.03
2022-09-18T07:20:23.761Z,100788.13
2022-09-18T07:22:58.555Z,100903.34
2022-09-18T07:25:29.845Z,100995.38
2022-09-18T07:27:56.219Z,100795.28
2022-09-18T07:30:22.639Z,100989.41
2022-09-18T07:32:49.158Z,100981.28
2022-09-18T07:35:16.780Z,101003.09
2022-09-18T07:37:43.150Z,100957.88
2022-09-18T07:40:12.155Z,100946.66
2022-09-18T07:42:39.799Z,100940.56
2022-09-18T07:45:06.588Z,100948.44
2022-09-18T07:47:32.921Z,100873.00
2022-09-18T07:49:59.294Z,100991.59
2022-09-18T07:52:25.671Z,100936.75
2022-09-18T07:54:52.018Z,100845.16
2022-09-18T07:57:18.396Z,100874.94
2022-09-18T07:59:44.741Z,100931.75
2022-09-18T08:02:12.206Z,100987.66
2022-09-18T08:04:39.031Z,100943.47
2022-09-18T08:07:05.481Z,100984.56
2022-09-18T08:09:31.806Z,100907.09
2022-09-18T08:11:58.773Z,100861.38
2022-09-18T08:14:28.783Z,100941.38
2022-09-18T08:16:56.022Z,100861.28
2022-09-18T08:19:22.387Z,100816.75
2022-09-18T08:21:48.736Z,100876.38
2022-09-18T08:24:17.201Z,100877.50
2022-09-18T08:26:43.608Z,100892.72
2022-09-18T08:29:09.932Z,100890.56
2022-09-18T08:31:36.309Z,101004.03
2022-09-18T08:34:02.767Z,101003.13
2022-09-18T08:36:29.095Z,100951.78
2022-09-18T08:38:55.814Z,101005.13
2022-09-18T08:41:38.586Z,101008.63
2022-09-18T08:44:24.110Z,100973.88
2022-09-18T08:47:03.556Z,101000.53
2022-09-18T08:49:40.909Z,101001.41
2022-09-18T08:52:16.463Z,100998.22
2022-09-18T08:54:51.796Z,100995.72
2022-09-18T08:57:25.350Z,100994.50
2022-09-18T09:00:09.466Z,100922.72
2022-09-18T09:02:41.239Z,101011.53
2022-09-18T09:05:13.429Z,100889.28
2022-09-18T09:07:53.098Z,101008.03
2022-09-18T09:10:42.922Z,100900.06
2022-09-18T09:13:54.804Z,100851.06
2022-09-18T09:16:27.540Z,100945.22
2022-09-18T09:19:17.180Z,100997.56
2022-09-18T09:22:18.016Z,100991.09
2022-09-18T09:25:02.077Z,100955.28
2022-09-18T09:27:37.774Z,100989.72
2022-09-18T09:30:11.492Z,100985.19
2022-09-18T09:32:44.570Z,100970.88
2022-09-18T09:35:23.216Z,100939.19
2022-09-18T09:37:51.085Z,101003.22
2022-09-18T09:40:35.850Z,100996.75
2022-09-18T09:43:11.398Z,100991.22
2022-09-18T09:45:56.560Z,100997.25
2022-09-18T09:48:28.820Z,100982.97
2022-09-18T09:51:02.853Z,100957.47
2022-09-18T09:53:29.998Z,100888.94
2022-09-18T09:56:22.214Z,100972.09
2022-09-18T09:59:01.161Z,100782.38
2022-09-18T10:01:35.647Z,100941.06
2022-09-18T10:04:13.833Z,100944.88
2022-09-18T10:06:52.060Z,100884.13
2022-09-18T10:09:46.213Z,100934.59
2022-09-18T10:12:24.889Z,100891.59
2022-09-18T10:14:55.431Z,100891.03
2022-09-18T10:17:23.222Z,100843.22
2022-09-18T10:19:50.091Z,100801.03
2022-09-18T10:22:22.943Z,100880.88
2022-09-18T10:25:01.697Z,100881.72
2022-09-18T10:27:28.067Z,100707.78
2022-09-18T10:29:54.794Z,100860.94
2022-09-18T10:32:36.242Z,100946.91
2022-09-18T10:35:31.153Z,100953.31
2022-09-18T10:37:59.145Z,100947.34
2022-09-18T10:40:34.392Z,100957.03
2022-09-18T10:43:01.105Z,100866.38
2022-09-18T10:45:29.512Z,100944.22
2022-09-18T10:48:07.068Z,100863.63
2022-09-18T10:50:34.548Z,100874.38
2022-09-18T10:53:31.631Z,100927.28
2022-09-18T10:56:04.831Z,100942.84
2022-09-18T10:58:33.439Z,100902.13
2022-09-18T11:01:03.444Z,100883.66
2022-09-18T11:03:46.519Z,100940.09
2022-09-18T11:06:23.838Z,100874.44
2022-09-18T11:08:53.025Z,100766.72
2022-09-18T11:11:28.445Z,100940.63
2022-09-18T11:14:01.920Z,100883.94
2022-09-18T11:16:31.516Z,100931.03
2022-09-18T11:19:10.114Z,100926.91
2022-09-18T11:21:55.078Z,100943.53
2022-09-18T11:24:24.450Z,100938.22
2022-09-18T11:26:59.657Z,100847.63
2022-09-18T11:29:34.394Z,100720.84
2022-09-18T11:32:26.651Z,100941.25
2022-09-18T11:34:55.691Z,100937.94
2022-09-18T11:37:31.953Z,100937.94
2022-09-18T11:40:23.664Z,100930.84
2022-09-18T11:42:54.002Z,100950.47
2022-09-18T11:45:43.830Z,100942.28
2022-09-18T11:48:26.142Z,100842.75
2022-09-18T11:50:56.870Z,100590.19
2022-09-18T11:53:30.129Z,100929.06
2022-09-18T11:56:15.265Z,100924.66
2022-09-18T11:58:47.831Z,100932.38
2022-09-18T12:01:31.209Z,100916.03
2022-09-18T12:04:13.573Z,100860.69
2022-09-18T12:10:17.970Z,100760.97
2022-09-18T12:12:51.356Z,100400.03
2022-09-18T12:15:40.800Z,100158.75
2022-09-18T12:18:29.467Z,100851.38
2022-09-18T12:21:01.146Z,100771.56
2022-09-18T12:23:27.587Z,100954.72
2022-09-18T12:26:23.724Z,101006.53
2022-09-18T12:29:08.845Z,101007.56
2022-09-18T12:32:03.407Z,101002.72
2022-09-18T12:34:44.765Z,101016.19
2022-09-18T12:37:49.369Z,101007.78
2022-09-18T12:40:53.410Z,101001.09
2022-09-18T12:43:35.500Z,100999.72
2022-09-18T12:46:49.868Z,100995.56
2022-09-18T12:49:45.301Z,100973.56
2022-09-18T12:52:23.014Z,100977.47
2022-09-18T12:55:00.919Z,100916.00
2022-09-18T12:57:56.565Z,100982.53
2022-09-18T13:00:23.160Z,100947.50
2022-09-18T13:02:55.574Z,100976.19
2022-09-18T13:08:11.576Z,100967.81
2022-09-18T13:10:50.119Z,100978.13
2022-09-18T13:13:28.401Z,100971.22
2022-09-18T13:16:01.622Z,100984.19
2022-09-18T13:18:50.187Z,100946.47
2022-09-18T13:21:29.579Z,100794.06
2022-09-18T13:23:57.532Z,100964.94
2022-09-18T13:26:30.316Z,100864.06
2022-09-18T13:28:56.664Z,100919.94
2022-09-18T13:31:29.581Z,100910.06
2022-09-18T13:34:06.616Z,100960.19
2022-09-18T13:36:35.712Z,100947.59
2022-09-18T13:39:06.234Z,100899.22
2022-09-18T13:41:51.506Z,100953.03
2022-09-18T13:44:34.140Z,100954.31
2022-09-18T13:47:15.042Z,100872.94
2022-09-18T13:49:52.503Z,100941.22
2022-09-18T13:52:34.033Z,100936.72
2022-09-18T13:55:22.013Z,100938.59
2022-09-18T13:57:48.724Z,100932.69
2022-09-18T14:00:21.184Z,100925.22
2022-09-18T14:03:11.268Z,100876.31
2022-09-18T14:05:42.535Z,100922.91
2022-09-18T14:08:24.276Z,100935.13
2022-09-18T14:11:22.060Z,100932.75
2022-09-18T14:13:57.430Z,100951.59
2022-09-18T14:16:30.754Z,100927.00
2022-09-18T14:19:01.834Z,100910.19
2022-09-18T14:21:38.158Z,100909.41
2022-09-18T14:24:23.336Z,100919.44
2022-09-18T14:26:56.232Z,100832.94
2022-09-18T14:29:27.187Z,100917.06
2022-09-18T14:31:56.066Z,100739.28
2022-09-18T14:34:30.064Z,100860.00
2022-09-18T14:37:00.206Z,100917.25
2022-09-18T14:39:29.446Z,100889.22
2022-09-18T14:42:12.142Z,100901.19
2022-09-18T14:44:39.484Z,100837.25
2022-09-18T14:47:08.874Z,100896.34
2022-09-18T14:49:41.147Z,100898.22
2022-09-18T14:52:27.641Z,100894.91
2022-09-18T14:54:59.905Z,100896.34
2022-09-18T14:57:31.927Z,100872.16
2022-09-18T15:00:01.228Z,100822.50
2022-09-18T15:02:33.000Z,100798.78
2022-09-18T15:05:03.004Z,100801.47
2022-09-18T15:07:30.421Z,100886.09
2022-09-18T15:10:01.189Z,100878.75
2022-09-18T15:12:30.593Z,100804.69
2022-09-18T15:14:58.605Z,100890.47
2022-09-18T15:17:27.881Z,100804.03
2022-09-18T15:22:59.146Z,100779.25
2022-09-18T15:25:32.212Z,100877.09
2022-09-18T15:28:04.336Z,100895.66
2022-09-18T15:30:30.790Z,100871.53
2022-09-18T15:35:56.750Z,100807.78
2022-09-18T15:38:31.122Z,100911.28
2022-09-18T15:40:57.423Z,100871.28
2022-09-18T15:43:35.342Z,100903.66
2022-09-18T15:46:04.604Z,100906.34
2022-09-18T15:49:00.340Z,100868.66
2022-09-18T15:51:35.755Z,100891.38
2022-09-18T15:54:12.114Z,100883.41
2022-09-18T15:56:48.074Z,100897.97
2022-09-18T15:59:32.919Z,100894.91
2022-09-18T16:02:07.279Z,100787.03
2022-09-18T16:04:35.627Z,100857.59
2022-09-18T16:07:23.098Z,100908.72
2022-09-18T16:09:50.368Z,100841.78
2022-09-18T16:12:33.200Z,100903.09
2022-09-18T16:15:23.097Z,100930.91
2022-09-18T16:17:56.120Z,100896.28
2022-09-18T16:20:30.632Z,100898.22
2022-09-18T16:23:05.069Z,100898.22
2022-09-18T16:25:35.709Z,100901.75
2022-09-18T16:28:06.817Z,100800.56
2022-09-18T16:30:33.533Z,100903.63
2022-09-18T16:33:13.353Z,100828.13
2022-09-18T16:35:39.641Z,100878.47
2022-09-18T16:38:05.961Z,100837.88
2022-09-18T16:40:32.771Z,100781.28
2022-09-18T16:42:59.178Z,100829.84
2022-09-18T16:45:26.957Z,100874.53
2022-09-18T16:47:56.906Z,100758.94
2022-09-18T16:50:26.416Z,100873.47
2022-09-18T16:52:53.283Z,100884.28
2022-09-18T16:55:20.071Z,100846.34
2022-09-18T16:57:46.496Z,100869.28
2022-09-18T17:00:13.175Z,100811.56
2022-09-18T17:02:39.591Z,100848.13
2022-09-18T17:05:06.253Z,100892.28
2022-09-18T17:07:32.662Z,100893.19
2022-09-18T17:09:59.088Z,100699.53
2022-09-18T17:12:25.623Z,100786.22
2022-09-18T17:14:52.360Z,100823.97
2022-09-18T17:17:19.103Z,100800.97
2022-09-18T17:19:45.429Z,100904.41
2022-09-18T17:22:11.826Z,100906.03
2022-09-18T17:24:38.554Z,100747.25
2022-09-18T17:27:04.924Z,100913.53
2022-09-18T17:29:31.271Z,100868.78
2022-09-18T17:31:57.938Z,100938.59
2022-09-18T17:34:24.305Z,100932.84
2022-09-18T17:36:50.713Z,100973.34
2022-09-18T17:39:17.497Z,100923.84
2022-09-18T17:41:45.641Z,100940.47
2022-09-18T17:44:11.939Z,100982.75
2022-09-18T17:46:38.293Z,100887.22
2022-09-18T17:49:05.810Z,100857.56
2022-09-18T17:51:33.143Z,100968.03
2022-09-18T17:54:05.280Z,100983.31
2022-09-18T17:56:33.128Z,100995.78
2022-09-18T17:59:02.632Z,100905.47
2022-09-18T18:01:29.818Z,100965.13
2022-09-18T18:03:57.203Z,100997.63
2022-09-18T18:06:24.037Z,100800.59
2022-09-18T18:08:50.767Z,100978.66
2022-09-18T18:11:21.856Z,100981.38
2022-09-18T18:13:49.651Z,100963.50
2022-09-18T18:16:21.965Z,100977.97
2022-09-18T18:18:53.189Z,100966.84
2022-09-18T18:21:19.652Z,100960.38
2022-09-18T18:23:46.493Z,100869.25
2022-09-18T18:26:13.616Z,100873.56
2022-09-18T18:28:41.293Z,100959.34
2022-09-18T18:31:12.018Z,100927.28
2022-09-18T18:33:40.997Z,100875.16
2022-09-18T18:36:13.435Z,100951.03
2022-09-18T18:38:41.931Z,100939.09
2022-09-18T18:41:08.979Z,100957.94
2022-09-18T18:43:36.815Z,100891.69
2022-09-18T18:46:06.595Z,100914.63
2022-09-18T18:48:33.812Z,100953.84
2022-09-18T18:51:13.293Z,100954.69
2022-09-18T18:53:40.392Z,100950.69
2022-09-18T18:56:09.708Z,100906.28
2022-09-18T18:58:36.329Z,100955.88
2022-09-18T19:01:07.732Z,100959.53
2022-09-18T19:03:39.847Z,100964.88
2022-09-18T19:06:06.521Z,100926.88
2022-09-18T19:08:34.269Z,100974.00
2022-09-18T19:11:03.397Z,100940.03
2022-09-18T19:13:29.940Z,100993.97
2022-09-18T19:15:56.647Z,101000.19
2022-09-18T19:18:23.799Z,100997.69
2022-09-18T19:20:53.439Z,100920.59
2022-09-18T19:23:19.817Z,100965.25
2022-09-18T19:25:46.546Z,101029.91
2022-09-18T19:28:15.375Z,101012.25
2022-09-18T19:30:42.181Z,100955.13
2022-09-18T19:33:14.745Z,100957.59
2022-09-18T19:35:41.693Z,101003.84
2022-09-18T19:38:08.375Z,101013.44
2022-09-18T19:40:38.028Z,100958.28
2022-09-18T19:43:09.147Z,100948.00
2022-09-18T19:45:37.194Z,101019.13
2022-09-18T19:48:07.333Z,101021.78
2022-09-18T19:50:37.711Z,100984.50
2022-09-18T19:53:04.020Z,100962.44
2022-09-18T19:55:30.485Z,100916.97
2022-09-18T19:57:59.157Z,101030.72
2022-09-18T20:00:26.221Z,100972.88
2022-09-18T20:02:56.481Z,101031.72
2022-09-18T20:05:22.799Z,101023.81
2022-09-18T20:07:49.492Z,100989.94
2022-09-18T20:10:17.088Z,101043.03
2022-09-18T20:12:43.497Z,101022.34
2022-09-18T20:15:11.232Z,101042.84
2022-09-18T20:17:37.984Z,101072.44
2022-09-18T20:20:08.736Z,100986.63
2022-09-18T20:22:38.249Z,101035.53
2022-09-18T20:25:04.851Z,101050.91
2022-09-18T20:27:36.182Z,101042.09
2022-09-18T20:30:04.300Z,100935.38
2022-09-18T20:32:30.703Z,100977.31
2022-09-18T20:34:57.698Z,101010.63
2022-09-18T20:37:32.825Z,100994.97
2022-09-18T20:40:02.801Z,100978.69
2022-09-18T20:42:31.706Z,101048.63
2022-09-18T20:45:02.319Z,101049.50
2022-09-18T20:47:34.878Z,101047.03
2022-09-18T20:50:09.209Z,101009.75
2022-09-18T20:52:42.931Z,101055.75
2022-09-18T20:55:12.415Z,101075.75
2022-09-18T20:57:40.061Z,101062.75
2022-09-18T21:00:09.499Z,101058.81
2022-09-18T21:02:36.068Z,101070.75
2022-09-18T21:05:14.476Z,101047.69
2022-09-18T21:07:43.657Z,101032.63
2022-09-18T21:10:11.085Z,100986.09
2022-09-18T21:12:38.719Z,101060.41
2022-09-18T21:15:11.117Z,101067.22
2022-09-18T21:17:38.286Z,100982.84
2022-09-18T21:20:06.027Z,101070.97
2022-09-18T21:22:32.400Z,101015.41
2022-09-18T21:24:59.148Z,101066.63
2022-09-18T21:27:26.459Z,100997.81
2022-09-18T21:29:53.913Z,101075.06
2022-09-18T21:32:21.894Z,101078.69
2022-09-18T21:34:49.110Z,101076.97
2022-09-18T21:37:15.523Z,101065.88
2022-09-18T21:39:44.222Z,100925.84
2022-09-18T21:42:10.940Z,101071.66
2022-09-18T21:44:37.555Z,101038.47
2022-09-18T21:47:06.988Z,100995.84
2022-09-18T21:49:34.306Z,101053.97
2022-09-18T21:52:06.533Z,101077.09
2022-09-18T21:54:33.770Z,101076.97
2022-09-18T21:57:00.866Z,101056.53
2022-09-18T21:59:30.466Z,101033.38
2022-09-18T22:01:57.795Z,101047.97
2022-09-18T22:04:27.296Z,101078.69
2022-09-18T22:06:55.960Z,101024.31
2022-09-18T22:09:31.344Z,100935.31
2022-09-18T22:11:58.580Z,101034.38
2022-09-18T22:14:29.737Z,101074.44
2022-09-18T22:16:56.348Z,100903.19
2022-09-18T22:19:22.855Z,101077.13
2022-09-18T22:21:50.900Z,101059.22
2022-09-18T22:24:19.879Z,100990.78
2022-09-18T22:26:50.623Z,101072.56
2022-09-18T22:29:26.719Z,101033.75
2022-09-18T22:31:53.391Z,101042.16
2022-09-18T22:34:23.054Z,101079.91
2022-09-18T22:36:50.400Z,101082.66
2022-09-18T22:39:18.722Z,101017.59
2022-09-18T22:41:45.234Z,101053.47
2022-09-18T22:44:11.805Z,101040.03
2022-09-18T22:46:40.860Z,100976.06
2022-09-18T22:49:08.669Z,101025.78
2022-09-18T22:51:35.299Z,101095.72
2022-09-18T22:54:07.585Z,101025.84
2022-09-18T22:56:42.979Z,101090.97
2022-09-18T22:59:11.457Z,101103.75
2022-09-18T23:01:45.065Z,101100.28
2022-09-18T23:04:12.087Z,101038.09
2022-09-18T23:06:38.419Z,101036.47
2022-09-18T23:09:06.528Z,100947.47
2022-09-18T23:11:34.644Z,101107.06
2022-09-18T23:14:06.504Z,101100.53
2022-09-18T23:16:35.283Z,101072.97
2022-09-18T23:19:07.555Z,101098.59
2022-09-18T23:21:34.730Z,101106.31
2022-09-18T23:24:05.944Z,101105.44
2022-09-18T23:26:37.959Z,101035.47
2022-09-18T23:29:09.800Z,101108.03
2022-09-18T23:31:39.759Z,101104.34
2022-09-18T23:34:10.306Z,101065.19
2022-09-18T23:36:39.044Z,101110.63
2022-09-18T23:39:08.198Z,101112.31
2022-09-18T23:41:34.783Z,101061.84
2022-09-18T23:44:02.728Z,101108.41
2022-09-18T23:46:29.294Z,101103.81
2022-09-18T23:48:55.736Z,101111.59
2022-09-18T23:51:24.489Z,101115.84
2022-09-18T23:53:54.445Z,101106.16
2022-09-18T23:56:23.420Z,101115.66
2022-09-18T23:59:01.871Z,100990.97
